Time;durP1;ratioP1;P1;durP2;ratioP2;P2;SDS_P1;SDS_P2;PMS_P1;PMS_P2;Temp;Humidity;BMP_temperature;BMP_pressure;BME280_temperature;BME280_humidity;BME280_pressure;Samples;Min_cycle;Max_cycle;Signal;HPM_P1;HPM_P2
2021/03/20 00:00:57;;;;;;;12.27;8.77;;;;;;;;;;5017191;28;20502;-85
2021/03/20 00:03:23;;;;;;;9.32;7.88;;;;;;;;;;5017741;28;20405;-84
2021/03/20 00:05:49;;;;;;;9.52;8.15;;;;;;;;;;5032054;28;20417;-85
2021/03/20 00:08:18;;;;;;;11.13;9.10;;;;;;;;;;5017105;28;20484;-84
2021/03/20 00:10:44;;;;;;;11.55;8.70;;;;;;;;;;5005527;28;20789;-84
2021/03/20 00:13:10;;;;;;;10.32;8.55;;;;;;;;;;5012261;28;20467;-84
2021/03/20 00:15:36;;;;;;;15.32;10.85;;;;;;;;;;5011070;28;20389;-84
2021/03/20 00:18:02;;;;;;;14.00;10.63;;;;;;;;;;5010477;28;20484;-84
2021/03/20 00:20:29;;;;;;;12.80;9.20;;;;;;;;;;4990787;28;20462;-84
2021/03/20 00:22:55;;;;;;;10.52;8.40;;;;;;;;;;5008693;28;20757;-84
2021/03/20 00:25:21;;;;;;;11.13;7.90;;;;;;;;;;4994064;28;20400;-84
2021/03/20 00:27:47;;;;;;;8.77;7.55;;;;;;;;;;4994548;28;20377;-85
2021/03/20 00:30:13;;;;;;;10.07;7.72;;;;;;;;;;5011794;28;20404;-84
2021/03/20 00:32:39;;;;;;;11.55;8.15;;;;;;;;;;4994455;28;20437;-84
2021/03/20 00:35:06;;;;;;;9.85;7.15;;;;;;;;;;5009304;28;20439;-84
2021/03/20 00:37:32;;;;;;;10.18;7.55;;;;;;;;;;4994563;28;20405;-84
2021/03/20 00:39:58;;;;;;;8.63;7.68;;;;;;;;;;5010484;28;20428;-84
2021/03/20 00:42:24;;;;;;;9.80;7.60;;;;;;;;;;5006415;28;20399;-85
2021/03/20 00:44:50;;;;;;;12.07;7.70;;;;;;;;;;4991296;28;21016;-84
2021/03/20 00:47:16;;;;;;;8.87;6.60;;;;;;;;;;4974872;28;20765;-84
2021/03/20 00:49:45;;;;;;;9.82;6.65;;;;;;;;;;4999865;28;20546;-84
2021/03/20 00:52:11;;;;;;;9.25;7.32;;;;;;;;;;5010752;28;20520;-84
2021/03/20 00:54:37;;;;;;;10.85;7.45;;;;;;;;;;5010311;28;20412;-85
2021/03/20 00:57:03;;;;;;;7.82;7.13;;;;;;;;;;5010066;28;20804;-84
2021/03/20 00:59:29;;;;;;;7.05;6.30;;;;;;;;;;5010173;28;20467;-84
2021/03/20 01:01:55;;;;;;;8.73;6.75;;;;;;;;;;5011999;28;20405;-84
2021/03/20 01:04:21;;;;;;;9.00;6.68;;;;;;;;;;5010056;28;20404;-85
2021/03/20 01:06:46;;;;;;;8.20;6.88;;;;;;;;;;4994314;28;20400;-84
2021/03/20 01:09:12;;;;;;;8.77;6.80;;;;;;;;;;5005393;28;20476;-84
2021/03/20 01:11:38;;;;;;;8.27;6.20;;;;;;;;;;5010250;28;20496;-84
2021/03/20 01:14:04;;;;;;;9.68;6.90;;;;;;;;;;5009981;28;20401;-84
2021/03/20 01:16:30;;;;;;;10.43;6.57;;;;;;;;;;5010014;28;20475;-85
2021/03/20 01:18:56;;;;;;;9.57;7.20;;;;;;;;;;5010485;28;20385;-84
2021/03/20 01:21:22;;;;;;;9.80;7.20;;;;;;;;;;5010485;28;20404;-85
2021/03/20 01:23:48;;;;;;;9.17;7.37;;;;;;;;;;4990527;28;20764;-84
2021/03/20 01:26:14;;;;;;;9.70;7.15;;;;;;;;;;4993398;28;20417;-84
2021/03/20 01:28:40;;;;;;;8.73;7.30;;;;;;;;;;5010324;28;20858;-84
2021/03/20 01:31:06;;;;;;;9.60;7.43;;;;;;;;;;5011257;28;20396;-84
2021/03/20 01:33:32;;;;;;;10.75;7.38;;;;;;;;;;5005556;28;20890;-84
2021/03/20 01:35:58;;;;;;;9.50;7.72;;;;;;;;;;4989888;28;20512;-85
2021/03/20 01:38:24;;;;;;;11.20;7.47;;;;;;;;;;5013782;28;20479;-84
2021/03/20 01:40:55;;;;;;;10.25;7.90;;;;;;;;;;5013785;28;20515;-84
2021/03/20 01:43:21;;;;;;;9.33;7.37;;;;;;;;;;5007859;28;20401;-84
2021/03/20 01:45:47;;;;;;;10.10;7.37;;;;;;;;;;5013546;28;20436;-84
2021/03/20 01:48:32;;;;;;;9.77;7.68;;;;;;;;;;4994140;28;20469;-84
2021/03/20 01:51:02;;;;;;;7.90;7.05;;;;;;;;;;4993929;28;20492;-84
2021/03/20 01:53:47;;;;;;;8.27;7.23;;;;;;;;;;5001688;28;20541;-85
2021/03/20 01:56:15;;;;;;;8.82;7.20;;;;;;;;;;5012926;28;20427;-85
2021/03/20 01:58:41;;;;;;;8.23;7.03;;;;;;;;;;4996385;28;20900;-84
2021/03/20 02:01:14;;;;;;;8.05;7.20;;;;;;;;;;4997054;28;20417;-85
2021/03/20 02:03:40;;;;;;;9.68;7.38;;;;;;;;;;4996941;28;20881;-84
2021/03/20 02:06:06;;;;;;;11.75;7.50;;;;;;;;;;5013410;28;20761;-84
2021/03/20 02:08:32;;;;;;;11.65;7.80;;;;;;;;;;5013136;28;20495;-84
2021/03/20 02:11:07;;;;;;;9.85;8.40;;;;;;;;;;5003808;28;20433;-83
2021/03/20 02:13:43;;;;;;;10.35;8.82;;;;;;;;;;4996944;28;20812;-84
2021/03/20 02:16:13;;;;;;;10.88;8.15;;;;;;;;;;4996741;28;20467;-85
2021/03/20 02:18:44;;;;;;;10.05;8.52;;;;;;;;;;5013299;28;20397;-84
2021/03/20 02:21:16;;;;;;;12.90;8.38;;;;;;;;;;5008584;28;20468;-84
2021/03/20 02:24:01;;;;;;;10.43;8.57;;;;;;;;;;5026091;28;20410;-84
2021/03/20 02:26:33;;;;;;;11.25;8.50;;;;;;;;;;5033026;28;20408;-84
2021/03/20 02:29:16;;;;;;;11.13;8.23;;;;;;;;;;5042410;28;20427;-85
2021/03/20 02:31:53;;;;;;;11.57;8.82;;;;;;;;;;5032808;28;20743;-84
2021/03/20 02:34:39;;;;;;;12.00;7.68;;;;;;;;;;5006994;28;20416;-84
2021/03/20 02:37:14;;;;;;;11.05;8.18;;;;;;;;;;5019200;28;20788;-84
2021/03/20 02:39:41;;;;;;;10.30;8.15;;;;;;;;;;5030704;28;20426;-84
2021/03/20 02:42:10;;;;;;;10.85;8.68;;;;;;;;;;5015432;28;20560;-84
2021/03/20 02:44:41;;;;;;;13.18;9.05;;;;;;;;;;5033048;28;20407;-85
2021/03/20 02:47:07;;;;;;;12.38;8.95;;;;;;;;;;5032801;28;20533;-84
2021/03/20 02:49:38;;;;;;;13.10;8.52;;;;;;;;;;5012405;28;20416;-84
2021/03/20 02:52:09;;;;;;;12.57;8.13;;;;;;;;;;5012552;28;20388;-84
2021/03/20 02:54:46;;;;;;;11.45;8.68;;;;;;;;;;5015777;28;20406;-84
2021/03/20 02:57:12;;;;;;;11.57;8.20;;;;;;;;;;5030884;28;20419;-85
2021/03/20 02:59:39;;;;;;;10.20;8.27;;;;;;;;;;5033342;28;20466;-84
2021/03/20 03:02:06;;;;;;;13.07;8.45;;;;;;;;;;5032063;28;20506;-84
2021/03/20 03:04:40;;;;;;;10.20;8.20;;;;;;;;;;5015496;28;20419;-84
2021/03/20 03:07:14;;;;;;;11.63;8.48;;;;;;;;;;5015495;28;20400;-85
2021/03/20 03:09:51;;;;;;;11.52;8.30;;;;;;;;;;5031144;28;20513;-84
2021/03/20 03:12:19;;;;;;;10.55;8.23;;;;;;;;;;5031454;28;20411;-84
2021/03/20 03:15:11;;;;;;;9.73;7.95;;;;;;;;;;5011311;28;20556;-84
2021/03/20 03:17:39;;;;;;;12.55;8.25;;;;;;;;;;5029477;28;20890;-85
2021/03/20 03:20:06;;;;;;;11.13;8.70;;;;;;;;;;5031571;28;20419;-84
2021/03/20 03:22:38;;;;;;;13.45;8.32;;;;;;;;;;5015436;28;20398;-85
2021/03/20 03:25:05;;;;;;;13.68;8.40;;;;;;;;;;5018693;28;20469;-85
2021/03/20 03:27:31;;;;;;;11.30;8.80;;;;;;;;;;5031705;28;20473;-85
2021/03/20 03:29:57;;;;;;;10.55;8.30;;;;;;;;;;5031439;28;20391;-84
2021/03/20 03:32:33;;;;;;;11.30;8.88;;;;;;;;;;5014891;28;20437;-85
2021/03/20 03:35:10;;;;;;;9.82;8.45;;;;;;;;;;5031093;28;20497;-85
2021/03/20 03:37:37;;;;;;;10.48;8.57;;;;;;;;;;5011803;28;20404;-85
2021/03/20 03:40:12;;;;;;;9.90;8.15;;;;;;;;;;5014981;28;20488;-85
2021/03/20 03:42:38;;;;;;;12.87;9.27;;;;;;;;;;5013528;28;20964;-84
2021/03/20 03:45:06;;;;;;;11.00;8.75;;;;;;;;;;5031220;28;20391;-85
2021/03/20 03:47:32;;;;;;;11.63;9.07;;;;;;;;;;5031175;28;20447;-84
2021/03/20 03:49:58;;;;;;;27.50;10.80;;;;;;;;;;5030632;28;20920;-84
2021/03/20 03:52:24;;;;;;;11.98;8.90;;;;;;;;;;5014633;28;20453;-84
2021/03/20 03:54:50;;;;;;;13.10;9.63;;;;;;;;;;5031197;28;20882;-85
2021/03/20 03:57:16;;;;;;;10.93;9.40;;;;;;;;;;5030634;28;20403;-85
2021/03/20 03:59:48;;;;;;;10.93;9.30;;;;;;;;;;5030899;28;20442;-84
2021/03/20 04:02:22;;;;;;;10.82;9.73;;;;;;;;;;5014447;28;20403;-84
2021/03/20 04:04:48;;;;;;;12.50;9.57;;;;;;;;;;5029691;28;20402;-85
2021/03/20 04:07:19;;;;;;;13.40;9.55;;;;;;;;;;5030740;28;20482;-84
2021/03/20 04:10:06;;;;;;;12.25;9.93;;;;;;;;;;5030936;28;20972;-85
2021/03/20 04:12:47;;;;;;;11.68;9.32;;;;;;;;;;5010936;28;20420;-85
2021/03/20 04:15:16;;;;;;;11.63;9.60;;;;;;;;;;5012286;28;20725;-85
2021/03/20 04:17:47;;;;;;;10.43;8.90;;;;;;;;;;5010538;28;20415;-84
2021/03/20 04:20:18;;;;;;;12.80;9.25;;;;;;;;;;4994111;28;20915;-85
2021/03/20 04:22:55;;;;;;;11.13;8.90;;;;;;;;;;5011116;28;20460;-84
2021/03/20 04:25:21;;;;;;;10.02;8.77;;;;;;;;;;5010237;28;20409;-85
2021/03/20 04:27:48;;;;;;;10.53;9.03;;;;;;;;;;5011963;28;20413;-84
2021/03/20 04:30:15;;;;;;;12.63;9.50;;;;;;;;;;5012396;28;20439;-85
2021/03/20 04:32:57;;;;;;;11.88;9.43;;;;;;;;;;4994585;28;20404;-85
2021/03/20 04:35:28;;;;;;;12.90;10.50;;;;;;;;;;5010754;28;20405;-85
2021/03/20 04:37:54;;;;;;;13.80;10.20;;;;;;;;;;4994357;28;20397;-85
2021/03/20 04:40:27;;;;;;;11.05;9.50;;;;;;;;;;4991510;28;20430;-85
2021/03/20 04:42:53;;;;;;;11.83;9.93;;;;;;;;;;5006277;28;20393;-85
2021/03/20 04:45:33;;;;;;;13.25;10.75;;;;;;;;;;4989989;28;20518;-84
2021/03/20 04:48:00;;;;;;;12.53;9.63;;;;;;;;;;4991292;28;20453;-84
2021/03/20 04:50:27;;;;;;;12.43;10.07;;;;;;;;;;4991221;28;20402;-85
2021/03/20 04:52:53;;;;;;;11.25;10.00;;;;;;;;;;4992196;28;20395;-84
2021/03/20 04:55:19;;;;;;;11.88;9.88;;;;;;;;;;5010685;28;20507;-85
2021/03/20 04:58:00;;;;;;;13.43;10.50;;;;;;;;;;4994325;28;20400;-84
2021/03/20 05:00:37;;;;;;;13.85;10.85;;;;;;;;;;5011103;28;20456;-84
2021/03/20 05:03:15;;;;;;;20.77;13.90;;;;;;;;;;5011401;28;20408;-84
2021/03/20 05:05:43;;;;;;;24.88;16.08;;;;;;;;;;5007139;28;20489;-84
2021/03/20 05:08:13;;;;;;;34.63;19.40;;;;;;;;;;4991026;28;20521;-84
2021/03/20 05:10:41;;;;;;;83.68;40.08;;;;;;;;;;5017605;28;20504;-84
2021/03/20 05:13:10;;;;;;;48.45;30.60;;;;;;;;;;5032194;28;20396;-85
2021/03/20 05:15:36;;;;;;;24.92;18.45;;;;;;;;;;5032780;28;20405;-85
2021/03/20 05:18:02;;;;;;;17.65;13.40;;;;;;;;;;5040077;28;20751;-85
2021/03/20 05:20:31;;;;;;;16.53;11.90;;;;;;;;;;5037699;28;20447;-85
2021/03/20 05:22:57;;;;;;;14.38;10.95;;;;;;;;;;5056601;28;20380;-85
2021/03/20 05:25:24;;;;;;;16.02;11.95;;;;;;;;;;5043616;28;20809;-85
2021/03/20 05:27:50;;;;;;;14.82;10.52;;;;;;;;;;5034881;28;20384;-85
2021/03/20 05:30:16;;;;;;;12.70;10.25;;;;;;;;;;5038983;28;20471;-85
2021/03/20 05:32:46;;;;;;;11.00;9.35;;;;;;;;;;5035232;28;20468;-84
2021/03/20 05:35:32;;;;;;;13.00;10.25;;;;;;;;;;5033763;28;20420;-84
2021/03/20 05:37:58;;;;;;;11.75;10.48;;;;;;;;;;5070806;28;20408;-85
2021/03/20 05:40:31;;;;;;;13.30;10.50;;;;;;;;;;5054538;28;20487;-85
2021/03/20 05:43:14;;;;;;;10.68;9.60;;;;;;;;;;5034398;28;20455;-85
2021/03/20 05:45:46;;;;;;;13.68;10.93;;;;;;;;;;5036885;28;20447;-84
2021/03/20 05:48:12;;;;;;;13.93;10.20;;;;;;;;;;5053187;28;20460;-84
2021/03/20 05:50:46;;;;;;;15.10;10.75;;;;;;;;;;5054737;28;20444;-84
2021/03/20 05:53:33;;;;;;;14.77;10.32;;;;;;;;;;5068340;28;20407;-85
2021/03/20 05:55:59;;;;;;;12.13;10.30;;;;;;;;;;5017625;28;20410;-84
2021/03/20 05:58:40;;;;;;;14.80;11.68;;;;;;;;;;5033337;28;20406;-85
2021/03/20 06:01:20;;;;;;;13.30;10.67;;;;;;;;;;5023714;28;20418;-85
2021/03/20 06:03:52;;;;;;;13.73;11.05;;;;;;;;;;5036770;28;20810;-84
2021/03/20 06:06:30;;;;;;;12.35;11.05;;;;;;;;;;5053952;28;20382;-85
2021/03/20 06:08:56;;;;;;;14.33;10.93;;;;;;;;;;5036739;28;20524;-85
2021/03/20 06:11:28;;;;;;;13.27;11.85;;;;;;;;;;5074044;28;20399;-85
2021/03/20 06:13:57;;;;;;;14.65;11.10;;;;;;;;;;5047918;28;20899;-84
2021/03/20 06:16:24;;;;;;;15.37;11.67;;;;;;;;;;5022160;28;20407;-85
2021/03/20 06:18:53;;;;;;;15.25;12.07;;;;;;;;;;5022007;28;20440;-85
2021/03/20 06:21:25;;;;;;;17.10;11.90;;;;;;;;;;5007451;28;20437;-85
2021/03/20 06:24:11;;;;;;;17.23;11.18;;;;;;;;;;5055108;28;20553;-85
2021/03/20 06:26:40;;;;;;;15.10;12.02;;;;;;;;;;5030654;28;21136;-85
2021/03/20 06:29:25;;;;;;;15.90;12.30;;;;;;;;;;5026264;28;20528;-84
2021/03/20 06:31:52;;;;;;;13.95;11.52;;;;;;;;;;5044161;28;20533;-86
2021/03/20 06:34:20;;;;;;;14.30;11.30;;;;;;;;;;5021532;28;21061;-85
2021/03/20 06:37:15;;;;;;;15.02;11.63;;;;;;;;;;5037664;28;20907;-86
2021/03/20 06:39:59;;;;;;;14.43;11.95;;;;;;;;;;5014532;28;20410;-90
2021/03/20 06:42:43;;;;;;;15.57;11.38;;;;;;;;;;5026057;28;20413;-85
2021/03/20 06:45:20;;;;;;;14.85;11.10;;;;;;;;;;5018104;28;20440;-85
2021/03/20 06:47:46;;;;;;;15.07;12.10;;;;;;;;;;5014007;28;20449;-85
2021/03/20 06:50:21;;;;;;;13.02;11.23;;;;;;;;;;5033065;28;20908;-85
2021/03/20 06:52:51;;;;;;;25.95;16.00;;;;;;;;;;5055981;28;20425;-85
2021/03/20 06:55:23;;;;;;;27.52;16.45;;;;;;;;;;5014849;28;20413;-85
2021/03/20 06:57:48;;;;;;;23.65;15.05;;;;;;;;;;5010797;28;21060;-85
2021/03/20 07:00:14;;;;;;;10.75;9.60;;;;;;;;;;5012014;28;20429;-85
2021/03/20 07:02:55;;;;;;;15.25;10.57;;;;;;;;;;5036340;28;20420;-85
2021/03/20 07:05:26;;;;;;;10.68;9.57;;;;;;;;;;5021855;28;20459;-85
2021/03/20 07:08:00;;;;;;;11.97;9.20;;;;;;;;;;5028148;28;20418;-84
2021/03/20 07:10:26;;;;;;;13.30;11.02;;;;;;;;;;5018357;28;20410;-84
2021/03/20 07:13:04;;;;;;;10.73;9.07;;;;;;;;;;5052408;28;20413;-84
2021/03/20 07:15:33;;;;;;;10.43;9.32;;;;;;;;;;5031021;28;20409;-85
2021/03/20 07:18:18;;;;;;;16.73;10.25;;;;;;;;;;5049744;28;20401;-83
2021/03/20 07:20:55;;;;;;;11.90;9.77;;;;;;;;;;5031771;28;20484;-87
2021/03/20 07:23:21;;;;;;;9.82;8.27;;;;;;;;;;5007743;28;20918;-86
2021/03/20 07:25:48;;;;;;;8.67;7.77;;;;;;;;;;5030570;28;20409;-86
2021/03/20 07:28:18;;;;;;;8.23;7.40;;;;;;;;;;5044028;28;20418;-86
2021/03/20 07:30:51;;;;;;;8.85;7.95;;;;;;;;;;5031569;28;20401;-85
2021/03/20 07:33:18;;;;;;;9.93;7.35;;;;;;;;;;5018528;28;20463;-87
2021/03/20 07:35:44;;;;;;;7.25;6.40;;;;;;;;;;5038682;28;20760;-86
2021/03/20 07:38:15;;;;;;;6.00;5.40;;;;;;;;;;5018455;28;20481;-86
2021/03/20 07:40:43;;;;;;;5.50;4.83;;;;;;;;;;5028440;28;20490;-88
2021/03/20 07:43:13;;;;;;;6.03;4.43;;;;;;;;;;5030743;28;20409;-86
2021/03/20 07:45:39;;;;;;;4.87;4.30;;;;;;;;;;5038148;28;20444;-86
2021/03/20 07:48:06;;;;;;;6.05;5.45;;;;;;;;;;5012303;28;20437;-87
2021/03/20 07:50:44;;;;;;;6.13;5.63;;;;;;;;;;5024474;28;20414;-86
2021/03/20 07:53:11;;;;;;;5.13;4.27;;;;;;;;;;5017537;28;20455;-86
2021/03/20 07:55:54;;;;;;;5.82;5.25;;;;;;;;;;5013500;28;20399;-86
2021/03/20 07:58:32;;;;;;;5.30;4.50;;;;;;;;;;5031613;28;20523;-86
2021/03/20 08:01:01;;;;;;;4.65;4.18;;;;;;;;;;5046023;28;20445;-86
2021/03/20 08:03:28;;;;;;;4.57;4.18;;;;;;;;;;5044169;28;20457;-86
2021/03/20 08:05:54;;;;;;;5.13;4.63;;;;;;;;;;5049456;28;20807;-87
2021/03/20 08:08:22;;;;;;;5.00;4.50;;;;;;;;;;5029935;28;20405;-85
2021/03/20 08:10:49;;;;;;;4.38;3.97;;;;;;;;;;5015521;28;20815;-86
2021/03/20 08:13:22;;;;;;;5.80;4.45;;;;;;;;;;5015387;28;20403;-86
2021/03/20 08:15:51;;;;;;;4.55;4.15;;;;;;;;;;5015344;28;20409;-86
2021/03/20 08:18:30;;;;;;;4.50;3.97;;;;;;;;;;5031942;28;20493;-86
2021/03/20 08:20:59;;;;;;;4.50;4.10;;;;;;;;;;5027214;28;20475;-86
2021/03/20 08:23:38;;;;;;;5.00;4.53;;;;;;;;;;5048477;28;20397;-86
2021/03/20 08:26:04;;;;;;;4.35;4.00;;;;;;;;;;5028297;28;20418;-86
2021/03/20 08:28:33;;;;;;;4.15;3.75;;;;;;;;;;5032917;28;20397;-86
2021/03/20 08:31:05;;;;;;;4.85;3.40;;;;;;;;;;5015621;28;20406;-88
2021/03/20 08:33:40;;;;;;;4.10;3.70;;;;;;;;;;5044466;28;20401;-83
2021/03/20 08:36:12;;;;;;;5.00;4.35;;;;;;;;;;5030318;28;20393;-85
2021/03/20 08:38:45;;;;;;;5.75;3.80;;;;;;;;;;5046030;28;20490;-86
2021/03/20 08:41:18;;;;;;;4.35;3.53;;;;;;;;;;5027746;28;20429;-86
2021/03/20 08:44:03;;;;;;;3.90;3.60;;;;;;;;;;5020386;28;20469;-85
2021/03/20 08:46:29;;;;;;;4.55;3.85;;;;;;;;;;5043890;28;20410;-87
2021/03/20 08:49:03;;;;;;;3.75;3.45;;;;;;;;;;5034117;28;20786;-86
2021/03/20 08:51:36;;;;;;;4.05;3.65;;;;;;;;;;5048214;28;20409;-85
2021/03/20 08:54:16;;;;;;;4.30;3.90;;;;;;;;;;5049670;28;21014;-87
2021/03/20 08:56:51;;;;;;;3.70;3.30;;;;;;;;;;5026607;28;20776;-86
2021/03/20 08:59:18;;;;;;;3.85;3.55;;;;;;;;;;5032209;28;20899;-86
2021/03/20 09:01:54;;;;;;;5.43;3.13;;;;;;;;;;5015956;28;20506;-86
2021/03/20 09:04:21;;;;;;;2.93;2.63;;;;;;;;;;5016351;28;20401;-86
2021/03/20 09:06:48;;;;;;;3.17;2.88;;;;;;;;;;5015330;28;20751;-87
2021/03/20 09:09:29;;;;;;;3.40;2.80;;;;;;;;;;5015401;28;20451;-86
2021/03/20 09:12:00;;;;;;;2.42;2.33;;;;;;;;;;5031510;28;20423;-86
2021/03/20 09:14:37;;;;;;;2.63;2.42;;;;;;;;;;5032051;28;20401;-86
2021/03/20 09:17:08;;;;;;;2.92;2.63;;;;;;;;;;5033034;28;20393;-85
2021/03/20 09:19:39;;;;;;;4.32;3.35;;;;;;;;;;5032502;28;20417;-86
2021/03/20 09:22:14;;;;;;;3.15;2.85;;;;;;;;;;5010224;28;20968;-86
2021/03/20 09:25:10;;;;;;;2.53;2.33;;;;;;;;;;5031585;28;20432;-86
2021/03/20 09:27:55;;;;;;;2.22;2.13;;;;;;;;;;5034759;28;20448;-86
2021/03/20 09:30:33;;;;;;;2.97;2.17;;;;;;;;;;5045405;28;20410;-86
2021/03/20 09:32:59;;;;;;;7.70;2.67;;;;;;;;;;5046578;28;20397;-85
2021/03/20 09:35:26;;;;;;;9.23;2.70;;;;;;;;;;5017152;28;20409;-85
2021/03/20 09:37:57;;;;;;;3.40;1.83;;;;;;;;;;5049765;28;20393;-86
2021/03/20 09:40:41;;;;;;;2.63;2.15;;;;;;;;;;5016391;28;20422;-86
2021/03/20 09:43:20;;;;;;;2.33;1.92;;;;;;;;;;5049602;28;20531;-85
2021/03/20 09:45:46;;;;;;;2.35;2.15;;;;;;;;;;5030278;28;20409;-86
2021/03/20 09:48:29;;;;;;;2.70;2.10;;;;;;;;;;5028787;28;20406;-86
2021/03/20 09:50:55;;;;;;;2.85;2.65;;;;;;;;;;5031933;28;20503;-88
2021/03/20 09:53:21;;;;;;;3.45;3.10;;;;;;;;;;5029379;28;20429;-85
2021/03/20 09:55:50;;;;;;;2.05;1.73;;;;;;;;;;5050553;28;20425;-86
2021/03/20 09:58:19;;;;;;;1.40;1.30;;;;;;;;;;5037635;28;20506;-86
2021/03/20 10:00:45;;;;;;;3.30;1.50;;;;;;;;;;5047001;28;20452;-86
2021/03/20 10:03:11;;;;;;;1.50;1.40;;;;;;;;;;5030761;28;20943;-86
2021/03/20 10:05:59;;;;;;;1.90;1.52;;;;;;;;;;5018674;28;20880;-86
2021/03/20 10:08:28;;;;;;;0.93;0.93;;;;;;;;;;5035480;28;20413;-88
2021/03/20 10:10:54;;;;;;;1.92;1.23;;;;;;;;;;5031025;28;20463;-87
2021/03/20 10:13:22;;;;;;;1.13;1.02;;;;;;;;;;5035770;28;20385;-89
2021/03/20 10:15:57;;;;;;;1.90;1.08;;;;;;;;;;5053046;28;20432;-87
2021/03/20 10:18:36;;;;;;;2.00;1.00;;;;;;;;;;5044248;28;20452;-86
2021/03/20 10:21:04;;;;;;;2.35;1.17;;;;;;;;;;5019432;28;20397;-87
2021/03/20 10:23:38;;;;;;;1.40;1.00;;;;;;;;;;5051538;28;20415;-87
2021/03/20 10:26:06;;;;;;;1.08;0.98;;;;;;;;;;5032594;28;20782;-87
2021/03/20 10:28:38;;;;;;;0.98;0.90;;;;;;;;;;5034986;28;20899;-88
2021/03/20 10:31:06;;;;;;;2.30;1.15;;;;;;;;;;5017027;28;20415;-87
2021/03/20 10:33:36;;;;;;;0.63;0.63;;;;;;;;;;5016373;28;20453;-88
2021/03/20 10:36:18;;;;;;;0.75;0.75;;;;;;;;;;5030576;28;20419;-89
2021/03/20 10:38:45;;;;;;;2.50;0.90;;;;;;;;;;5031400;28;20474;-88
2021/03/20 10:41:21;;;;;;;2.25;1.10;;;;;;;;;;5052708;28;20397;-88
2021/03/20 10:43:51;;;;;;;1.00;1.00;;;;;;;;;;5033423;28;20472;-87
2021/03/20 10:46:22;;;;;;;1.75;0.90;;;;;;;;;;5033580;28;20404;-88
2021/03/20 10:48:48;;;;;;;1.23;1.13;;;;;;;;;;5034598;28;20416;-87
2021/03/20 10:51:14;;;;;;;1.03;0.93;;;;;;;;;;5018096;28;20409;-86
2021/03/20 10:53:51;;;;;;;0.80;0.80;;;;;;;;;;5034556;28;20389;-85
2021/03/20 10:56:24;;;;;;;1.70;0.80;;;;;;;;;;5035168;28;20447;-84
2021/03/20 10:58:50;;;;;;;4.38;1.20;;;;;;;;;;5016981;28;20398;-88
2021/03/20 11:01:21;;;;;;;1.42;1.25;;;;;;;;;;5052627;28;20491;-87
2021/03/20 11:03:47;;;;;;;1.00;1.00;;;;;;;;;;5018182;28;21069;-87
2021/03/20 11:06:17;;;;;;;0.88;0.88;;;;;;;;;;5031926;28;20395;-88
2021/03/20 11:08:47;;;;;;;1.08;1.08;;;;;;;;;;5047395;28;20406;-87
2021/03/20 11:11:14;;;;;;;2.22;0.90;;;;;;;;;;5034593;28;20497;-88
2021/03/20 11:13:41;;;;;;;2.40;1.10;;;;;;;;;;5062505;28;20392;-86
2021/03/20 11:16:08;;;;;;;2.13;1.40;;;;;;;;;;5021486;28;20495;-85
2021/03/20 11:18:40;;;;;;;0.98;0.98;;;;;;;;;;5039338;28;20405;-85
2021/03/20 11:21:16;;;;;;;1.10;0.70;;;;;;;;;;5026586;28;23845;-85
2021/03/20 11:23:42;;;;;;;0.93;0.90;;;;;;;;;;5048304;28;20483;-86
2021/03/20 11:26:09;;;;;;;2.72;0.95;;;;;;;;;;5028930;28;20479;-87
2021/03/20 11:28:35;;;;;;;1.80;1.10;;;;;;;;;;5046304;28;20401;-84
2021/03/20 11:31:04;;;;;;;1.17;1.02;;;;;;;;;;5033904;28;20556;-86
2021/03/20 11:33:32;;;;;;;1.83;0.90;;;;;;;;;;5031000;28;20410;-86
2021/03/20 11:36:01;;;;;;;1.73;1.20;;;;;;;;;;5017005;28;20405;-86
2021/03/20 11:38:28;;;;;;;0.97;0.90;;;;;;;;;;5017197;28;21427;-87
2021/03/20 11:40:54;;;;;;;1.15;1.15;;;;;;;;;;5018569;28;20437;-87
2021/03/20 11:43:20;;;;;;;1.17;1.07;;;;;;;;;;5052225;28;20432;-86
2021/03/20 11:45:50;;;;;;;1.13;1.02;;;;;;;;;;5031644;28;20409;-85
2021/03/20 11:48:32;;;;;;;1.88;1.08;;;;;;;;;;5017842;28;20406;-86
2021/03/20 11:50:58;;;;;;;2.10;0.80;;;;;;;;;;5014417;28;21099;-86
2021/03/20 11:53:25;;;;;;;3.97;1.40;;;;;;;;;;5012093;28;20418;-87
2021/03/20 11:55:52;;;;;;;1.13;1.02;;;;;;;;;;5017652;28;20411;-86
2021/03/20 11:58:24;;;;;;;1.20;0.97;;;;;;;;;;5033668;28;20737;-86
2021/03/20 12:00:50;;;;;;;0.90;0.90;;;;;;;;;;5032111;28;20397;-86
2021/03/20 12:03:28;;;;;;;1.80;0.90;;;;;;;;;;5016440;28;20404;-85
2021/03/20 12:06:17;;;;;;;0.98;0.90;;;;;;;;;;5025270;28;20923;-86
2021/03/20 12:08:43;;;;;;;1.50;1.00;;;;;;;;;;5039959;28;20405;-86
2021/03/20 12:11:10;;;;;;;0.70;0.70;;;;;;;;;;5038408;28;20555;-86
2021/03/20 12:13:43;;;;;;;1.23;1.13;;;;;;;;;;5008664;28;20410;-85
2021/03/20 12:19:15;;;;;;;0.90;0.85;;;;;;;;;;5017073;28;20378;-86
2021/03/20 12:21:56;;;;;;;0.80;0.80;;;;;;;;;;4999631;28;20439;-86
2021/03/20 12:24:27;;;;;;;1.10;0.80;;;;;;;;;;5057108;28;20389;-86
2021/03/20 12:26:53;;;;;;;1.88;0.90;;;;;;;;;;5050439;28;20424;-86
2021/03/20 12:29:38;;;;;;;1.00;0.90;;;;;;;;;;5040415;28;20442;-86
2021/03/20 12:32:18;;;;;;;1.70;1.08;;;;;;;;;;5018349;28;20405;-86
2021/03/20 12:34:44;;;;;;;0.90;0.90;;;;;;;;;;5038116;28;20413;-87
2021/03/20 12:37:30;;;;;;;1.25;1.02;;;;;;;;;;5017483;28;20745;-85
2021/03/20 12:39:56;;;;;;;4.05;1.30;;;;;;;;;;5051254;28;20385;-87
2021/03/20 12:42:22;;;;;;;1.20;1.10;;;;;;;;;;5015304;28;20920;-85
2021/03/20 12:44:48;;;;;;;1.33;1.27;;;;;;;;;;5030304;28;20411;-86
2021/03/20 12:47:15;;;;;;;1.65;1.50;;;;;;;;;;5033659;28;20413;-87
2021/03/20 12:49:41;;;;;;;1.75;1.60;;;;;;;;;;5058493;28;20424;-87
2021/03/20 12:52:18;;;;;;;1.85;1.10;;;;;;;;;;5027440;28;20399;-87
2021/03/20 12:54:46;;;;;;;4.57;3.10;;;;;;;;;;5034403;28;20799;-87
2021/03/20 12:57:22;;;;;;;1.80;1.60;;;;;;;;;;5030463;28;20476;-87
2021/03/20 12:59:48;;;;;;;1.15;1.00;;;;;;;;;;5023943;28;20392;-87
2021/03/20 13:02:14;;;;;;;1.10;1.10;;;;;;;;;;5020140;28;20428;-87
2021/03/20 13:04:40;;;;;;;2.55;1.90;;;;;;;;;;5042650;28;20391;-86
2021/03/20 13:07:07;;;;;;;1.80;1.70;;;;;;;;;;5023927;28;20402;-87
2021/03/20 13:09:33;;;;;;;1.17;1.07;;;;;;;;;;5045365;28;20415;-86
2021/03/20 13:11:59;;;;;;;3.95;2.92;;;;;;;;;;5043806;28;20431;-86
2021/03/20 13:14:25;;;;;;;3.47;1.95;;;;;;;;;;5040918;28;20796;-87
2021/03/20 13:16:51;;;;;;;1.38;1.17;;;;;;;;;;5048273;28;20855;-87
2021/03/20 13:19:35;;;;;;;0.80;0.80;;;;;;;;;;5029616;28;20521;-86
2021/03/20 13:22:01;;;;;;;1.10;1.10;;;;;;;;;;5022069;28;20400;-86
2021/03/20 13:24:36;;;;;;;1.80;1.33;;;;;;;;;;5043903;28;20459;-87
2021/03/20 13:27:02;;;;;;;1.60;1.27;;;;;;;;;;5026000;28;20420;-87
2021/03/20 13:29:28;;;;;;;1.27;1.08;;;;;;;;;;5051709;28;20788;-87
2021/03/20 13:31:55;;;;;;;1.20;1.17;;;;;;;;;;5034600;28;20415;-87
2021/03/20 13:34:23;;;;;;;2.70;1.42;;;;;;;;;;5052422;28;20385;-87
2021/03/20 13:36:49;;;;;;;1.00;1.00;;;;;;;;;;5036336;28;20492;-86
2021/03/20 13:39:15;;;;;;;1.53;1.20;;;;;;;;;;5048421;28;20447;-86
2021/03/20 13:42:16;;;;;;;;;;;;;;;;;;;;;
2021/03/20 13:45:44;;;;;;;1.60;1.50;;;;;;;;;;5027343;28;20389;-85
2021/03/20 13:47:51;;;;;;;1.92;1.50;;;;;;;;;;5038483;28;20389;-86
2021/03/20 13:50:20;;;;;;;1.58;1.48;;;;;;;;;;5019336;28;20772;-86
2021/03/20 13:52:46;;;;;;;1.48;1.20;;;;;;;;;;5011628;28;20436;-85
2021/03/20 13:55:12;;;;;;;2.38;1.15;;;;;;;;;;5021809;28;20419;-86
2021/03/20 13:57:38;;;;;;;1.33;1.25;;;;;;;;;;5049796;28;20437;-85
2021/03/20 14:00:05;;;;;;;1.45;1.40;;;;;;;;;;5033186;28;20928;-85
2021/03/20 14:02:43;;;;;;;1.17;1.15;;;;;;;;;;5018880;28;20420;-85
2021/03/20 14:05:12;;;;;;;2.00;1.40;;;;;;;;;;5033778;28;20413;-86
2021/03/20 14:07:39;;;;;;;1.58;1.48;;;;;;;;;;5046714;28;20441;-85
2021/03/20 14:10:06;;;;;;;1.63;1.53;;;;;;;;;;5034079;28;20428;-87
2021/03/20 14:12:33;;;;;;;1.75;1.65;;;;;;;;;;4993917;28;20417;-85
2021/03/20 14:14:59;;;;;;;1.80;1.33;;;;;;;;;;5008032;28;20882;-83
2021/03/20 14:17:33;;;;;;;4.43;1.57;;;;;;;;;;5009828;28;20824;-85
2021/03/20 14:19:59;;;;;;;8.15;2.70;;;;;;;;;;4996287;28;20910;-86
2021/03/20 14:22:28;;;;;;;1.80;1.50;;;;;;;;;;4995192;28;20417;-86
2021/03/20 14:24:54;;;;;;;1.45;1.40;;;;;;;;;;4994575;28;20503;-85
2021/03/20 14:27:20;;;;;;;1.83;1.50;;;;;;;;;;4996399;28;20451;-86
2021/03/20 14:29:46;;;;;;;2.40;2.20;;;;;;;;;;5012688;28;20499;-85
2021/03/20 14:32:12;;;;;;;1.60;1.50;;;;;;;;;;5010061;28;20980;-85
2021/03/20 14:34:38;;;;;;;1.67;1.50;;;;;;;;;;5013059;28;20396;-86
2021/03/20 14:37:05;;;;;;;1.65;1.50;;;;;;;;;;5010372;28;21000;-85
2021/03/20 14:39:31;;;;;;;2.65;1.70;;;;;;;;;;5010229;28;20401;-85
2021/03/20 14:41:57;;;;;;;3.27;3.07;;;;;;;;;;5011941;28;20443;-86
2021/03/20 14:44:23;;;;;;;1.85;1.75;;;;;;;;;;5011228;28;20417;-86
2021/03/20 14:46:49;;;;;;;1.48;1.38;;;;;;;;;;4991380;28;20790;-85
2021/03/20 14:49:20;;;;;;;1.70;1.60;;;;;;;;;;4992999;28;20406;-86
2021/03/20 14:51:58;;;;;;;1.38;1.30;;;;;;;;;;4996357;28;20416;-86
2021/03/20 14:54:27;;;;;;;1.55;1.45;;;;;;;;;;5012088;28;20929;-86
2021/03/20 14:56:53;;;;;;;1.80;1.70;;;;;;;;;;5011344;28;20420;-86
2021/03/20 14:59:19;;;;;;;1.75;1.65;;;;;;;;;;5011143;28;20428;-86